Kezdőlap
METAR-TAF:

METAR-TAF

Repülőterek :

Meriden-Markham Municipal Airport

Meriden, Connecticut, Amerikai Egyesült Államok

földrajzi szélesség: 41-30-35N, földrajzi hosszúság: 072-49-40W, magasság: 31 m

Jelenlegi meteorológiai megfigyelések

A jelentés 15 perccel ezelõtt készült, 14:53 UTC
Dél-délkeleti szél 11 kt
Hőmérséklet 10°C
Páratartalom 62%
Légköri nyomás 1022 hPa
Látótávolság: 16.1 km
Borult 4100 lábon

METAR: KMMK 181453Z AUTO 16011KT 10SM OVC041 10/03 A3018 RMK AO2 SLP219 60000 T01000028 58012

Idő: 11:08 (15:08 UTC)


TAF: hiányzik

Meteorológiai megfigyelések és előrejelzések több, mint 4000 repülőtéren (METAR és TAF jelentéseket).

A térképen piros és sárga pontok jelzik az elérhető meteorológiai állomásokat.

Mozgassa az egeret a pont fölött, hogy megjelenjen az állomás neve.

Azután kattintson az időjárási megfigyelések és előrejelzések megtekintéséhez.

A térkép megváltoztatása: kattintson a fekete keresztel jelölt zöld gombra ráközelítéshez, a vonallal jelölt zöld gombra távolításhoz, vagy a zöld nyilakra a szomszédos térképek eléréséhez.


METAR-TAF: